Time;durP1;ratioP1;P1;durP2;ratioP2;P2;SDS_P1;SDS_P2;PMS_P1;PMS_P2;Temp;Humidity;BMP_temperature;BMP_pressure;BME280_temperature;BME280_humidity;BME280_pressure;Samples;Min_cycle;Max_cycle;Signal;HPM_P1;HPM_P2
2024/04/15 00:01:59;;;;;;;7.80;4.67;;;9.70;99.90;;;;;;5415152;26;20601;-70
2024/04/15 00:04:25;;;;;;;9.63;5.13;;;9.70;99.90;;;;;;5414948;26;20272;-69
2024/04/15 00:06:50;;;;;;;6.60;5.23;;;9.70;99.90;;;;;;5416126;26;20274;-68
2024/04/15 00:09:16;;;;;;;6.40;4.40;;;9.80;99.90;;;;;;5415654;26;20247;-69
2024/04/15 00:11:41;;;;;;;15.60;6.73;;;9.70;99.90;;;;;;5416156;26;20216;-69
2024/04/15 00:14:07;;;;;;;12.57;5.90;;;9.70;99.90;;;;;;5423233;26;20215;-68
2024/04/15 00:16:32;;;;;;;7.60;5.10;;;9.70;99.90;;;;;;5417001;26;20358;-68
2024/04/15 00:18:58;;;;;;;6.87;5.10;;;9.70;99.90;;;;;;5416274;26;20764;-68
2024/04/15 00:21:23;;;;;;;10.13;5.13;;;9.70;99.90;;;;;;5415814;26;20279;-70
2024/04/15 00:23:49;;;;;;;11.50;6.03;;;9.70;99.90;;;;;;5416773;26;20336;-71
2024/04/15 00:26:15;;;;;;;9.67;6.23;;;9.70;99.90;;;;;;5415832;26;20278;-70
2024/04/15 00:28:40;;;;;;;6.97;5.03;;;9.70;99.90;;;;;;5411699;26;20319;-68
2024/04/15 00:31:06;;;;;;;8.63;6.07;;;9.60;99.90;;;;;;5408568;26;20317;-68
2024/04/15 00:33:31;;;;;;;8.60;5.60;;;9.60;99.90;;;;;;5414419;26;20622;-69
2024/04/15 00:35:57;;;;;;;5.67;4.40;;;9.60;99.90;;;;;;5414646;26;20316;-68
2024/04/15 00:38:22;;;;;;;7.97;5.33;;;9.60;99.90;;;;;;5415372;26;20275;-69
2024/04/15 00:40:48;;;;;;;7.80;5.47;;;9.50;99.90;;;;;;5415438;26;20220;-68
2024/04/15 00:43:13;;;;;;;7.07;5.33;;;9.50;99.90;;;;;;5414243;26;20696;-68
2024/04/15 00:45:39;;;;;;;7.20;5.10;;;9.50;99.90;;;;;;5402686;26;20544;-68
2024/04/15 00:48:10;;;;;;;7.20;5.30;;;9.60;99.90;;;;;;5415049;26;20332;-68
2024/04/15 00:50:40;;;;;;;7.80;5.40;;;9.60;99.90;;;;;;5414247;26;20227;-69
2024/04/15 00:53:06;;;;;;;9.53;7.13;;;9.70;99.90;;;;;;5414429;26;20804;-70
2024/04/15 00:55:34;;;;;;;10.63;6.53;;;9.70;99.90;;;;;;5414153;26;20935;-69
2024/04/15 00:58:01;;;;;;;9.00;5.60;;;9.60;99.90;;;;;;5415027;26;20533;-69
2024/04/15 01:00:27;;;;;;;9.00;6.33;;;9.60;99.90;;;;;;5401664;26;20454;-69
2024/04/15 01:02:53;;;;;;;9.37;7.23;;;9.60;99.90;;;;;;5414616;26;20458;-70
2024/04/15 01:05:19;;;;;;;17.30;9.10;;;9.60;99.90;;;;;;5414396;26;20570;-69
2024/04/15 01:07:45;;;;;;;15.33;8.00;;;9.50;99.90;;;;;;5414653;26;20477;-68
2024/04/15 01:10:11;;;;;;;13.13;7.93;;;9.50;99.90;;;;;;5415325;26;20537;-69
2024/04/15 01:12:36;;;;;;;11.10;7.27;;;9.50;99.90;;;;;;5415669;26;20220;-69
2024/04/15 01:15:03;;;;;;;13.63;8.87;;;9.50;99.90;;;;;;5414808;26;20231;-69
2024/04/15 01:17:28;;;;;;;10.80;8.07;;;9.50;99.90;;;;;;5418007;26;20614;-69
2024/04/15 01:19:59;;;;;;;11.40;7.43;;;9.50;99.90;;;;;;5417710;26;20518;-69
2024/04/15 01:22:29;;;;;;;10.07;6.83;;;9.50;99.90;;;;;;5417350;26;20219;-69
2024/04/15 01:24:55;;;;;;;12.47;7.30;;;9.40;99.90;;;;;;5416598;26;20529;-69
2024/04/15 01:27:20;;;;;;;13.10;7.13;;;9.50;99.90;;;;;;5418366;26;20923;-68
2024/04/15 01:29:46;;;;;;;9.70;6.93;;;9.50;99.90;;;;;;5418228;26;20274;-69
2024/04/15 01:32:11;;;;;;;11.53;7.00;;;9.50;99.90;;;;;;5418206;26;20635;-70
2024/04/15 01:34:37;;;;;;;13.03;8.27;;;9.50;99.90;;;;;;5417555;26;20266;-69
2024/04/15 01:37:03;;;;;;;18.33;8.73;;;9.50;99.90;;;;;;5387017;26;20320;-68
2024/04/15 01:39:29;;;;;;;18.00;8.67;;;9.40;99.90;;;;;;5418041;26;20235;-69
2024/04/15 01:41:54;;;;;;;14.87;8.83;;;9.40;99.90;;;;;;5417993;26;20453;-71
2024/04/15 01:44:20;;;;;;;20.07;9.60;;;9.40;99.90;;;;;;5417805;26;20658;-69
2024/04/15 01:46:45;;;;;;;16.37;9.60;;;9.40;99.90;;;;;;5417727;26;20228;-69
2024/04/15 01:49:11;;;;;;;15.73;9.00;;;9.30;99.90;;;;;;5417998;26;20273;-68
2024/04/15 01:51:37;;;;;;;15.40;9.90;;;9.20;99.90;;;;;;5415187;26;20231;-68
2024/04/15 01:54:02;;;;;;;14.13;9.60;;;9.20;99.90;;;;;;5417560;26;20293;-69
2024/04/15 01:56:28;;;;;;;12.67;8.07;;;9.10;99.90;;;;;;5417484;26;20557;-69
2024/04/15 01:58:53;;;;;;;17.20;10.63;;;9.00;99.90;;;;;;5418106;26;20614;-68
2024/04/15 02:01:19;;;;;;;13.90;9.73;;;9.00;99.90;;;;;;5418534;26;20228;-70
2024/04/15 02:03:45;;;;;;;15.07;8.70;;;9.00;99.90;;;;;;5417786;26;20345;-69
2024/04/15 02:06:10;;;;;;;13.20;9.20;;;9.00;99.90;;;;;;5416992;26;20275;-69
2024/04/15 02:08:36;;;;;;;12.40;8.67;;;9.00;99.90;;;;;;5416855;26;20243;-68
2024/04/15 02:11:02;;;;;;;13.57;9.37;;;9.00;99.90;;;;;;5417542;26;20294;-70
2024/04/15 02:13:27;;;;;;;15.57;9.80;;;9.00;99.90;;;;;;5415395;26;20466;-70
2024/04/15 02:15:53;;;;;;;10.70;7.70;;;9.00;99.90;;;;;;5415175;26;20354;-69
2024/04/15 02:18:19;;;;;;;9.23;7.60;;;9.00;99.90;;;;;;5417311;26;20360;-69
2024/04/15 02:20:45;;;;;;;13.00;8.80;;;9.10;99.90;;;;;;5416520;26;20274;-69
2024/04/15 02:23:11;;;;;;;23.77;13.50;;;9.10;99.90;;;;;;5417198;26;20266;-69
2024/04/15 02:25:36;;;;;;;16.27;10.33;;;9.20;99.90;;;;;;5417361;26;20458;-69
2024/04/15 02:28:02;;;;;;;19.47;11.23;;;9.20;99.90;;;;;;5415381;26;20236;-68
2024/04/15 02:30:28;;;;;;;14.63;10.50;;;9.20;99.90;;;;;;5416793;26;20597;-69
2024/04/15 02:32:53;;;;;;;16.40;11.70;;;9.20;99.90;;;;;;5416893;26;20220;-71
2024/04/15 02:35:19;;;;;;;16.63;10.87;;;9.20;99.90;;;;;;5415065;26;20216;-67
2024/04/15 02:37:44;;;;;;;21.00;12.90;;;9.30;99.90;;;;;;5417625;26;20365;-69
2024/04/15 02:40:10;;;;;;;20.80;13.07;;;9.30;99.90;;;;;;5417211;26;20342;-69
2024/04/15 02:42:35;;;;;;;18.70;12.00;;;9.40;99.90;;;;;;5417113;26;20549;-69
2024/04/15 02:45:01;;;;;;;16.23;10.93;;;9.50;99.90;;;;;;5416267;26;20220;-69
2024/04/15 02:47:27;;;;;;;16.93;10.90;;;9.50;99.90;;;;;;5417480;26;20223;-69
2024/04/15 02:49:52;;;;;;;15.23;10.43;;;9.60;99.90;;;;;;5416721;26;20266;-69
2024/04/15 02:52:18;;;;;;;13.40;10.90;;;9.60;99.90;;;;;;5418091;26;20266;-69
2024/04/15 02:54:44;;;;;;;14.57;10.80;;;9.50;99.90;;;;;;5417192;26;20266;-69
2024/04/15 02:57:09;;;;;;;15.10;10.13;;;9.50;99.90;;;;;;5417544;26;20228;-69
2024/04/15 02:59:35;;;;;;;13.10;10.00;;;9.50;99.90;;;;;;5408282;26;20220;-68
2024/04/15 03:02:00;;;;;;;13.23;9.30;;;9.50;99.90;;;;;;5416313;26;20267;-68
2024/04/15 03:04:26;;;;;;;11.23;9.07;;;9.50;99.90;;;;;;5414982;26;20224;-68
2024/04/15 03:06:52;;;;;;;8.60;7.70;;;9.50;99.90;;;;;;5416873;26;20539;-69
2024/04/15 03:09:20;;;;;;;10.63;8.30;;;9.40;99.90;;;;;;5416808;26;20278;-69
2024/04/15 03:11:47;;;;;;;11.70;8.90;;;9.30;99.90;;;;;;5416897;26;20506;-69
2024/04/15 03:14:13;;;;;;;11.27;8.67;;;9.20;99.90;;;;;;5405292;26;20463;-69
2024/04/15 03:16:38;;;;;;;11.90;7.77;;;9.20;99.90;;;;;;5416302;26;20506;-69
2024/04/15 03:19:04;;;;;;;10.67;7.37;;;9.10;99.90;;;;;;5416958;26;20626;-69
2024/04/15 03:21:29;;;;;;;11.83;8.00;;;9.00;99.90;;;;;;5416345;26;20285;-69
2024/04/15 03:23:55;;;;;;;12.20;9.20;;;8.90;99.90;;;;;;5415496;26;20649;-69
2024/04/15 03:26:21;;;;;;;7.47;6.60;;;8.90;99.90;;;;;;5416922;26;20228;-69
2024/04/15 03:28:46;;;;;;;8.43;6.33;;;8.80;99.90;;;;;;5408846;26;20678;-69
2024/04/15 03:31:12;;;;;;;7.73;6.80;;;8.70;99.90;;;;;;5384321;26;20224;-68
2024/04/15 03:33:40;;;;;;;8.17;7.37;;;8.70;99.90;;;;;;5414359;26;20270;-67
2024/04/15 03:36:06;;;;;;;10.10;7.20;;;8.60;99.90;;;;;;5414900;26;20919;-69
2024/04/15 03:38:33;;;;;;;8.97;6.60;;;8.60;99.90;;;;;;5415588;26;20516;-68
2024/04/15 03:40:59;;;;;;;8.90;7.47;;;8.50;99.90;;;;;;5415128;26;20449;-69
2024/04/15 03:43:25;;;;;;;13.23;9.20;;;8.50;99.90;;;;;;5411279;26;20669;-69
2024/04/15 03:45:51;;;;;;;11.00;8.63;;;8.50;99.90;;;;;;5404584;26;20453;-68
2024/04/15 03:48:16;;;;;;;10.43;7.97;;;8.40;99.90;;;;;;5416276;26;20469;-69
2024/04/15 03:50:42;;;;;;;10.07;7.83;;;8.40;99.90;;;;;;5415296;26;20697;-68
2024/04/15 03:53:08;;;;;;;13.20;7.90;;;8.40;99.90;;;;;;5416055;26;20290;-69
2024/04/15 03:55:33;;;;;;;11.43;7.47;;;8.40;99.90;;;;;;5416940;26;20507;-70
2024/04/15 03:57:59;;;;;;;10.60;7.80;;;8.30;99.90;;;;;;5418678;26;20295;-69
2024/04/15 04:00:25;;;;;;;8.80;7.20;;;8.30;99.90;;;;;;5419103;26;20270;-68
2024/04/15 04:02:51;;;;;;;15.43;7.97;;;8.30;99.90;;;;;;5419497;26;20227;-70
2024/04/15 04:05:16;;;;;;;9.80;7.23;;;8.30;99.90;;;;;;5417462;26;20927;-69
2024/04/15 04:07:42;;;;;;;12.23;8.00;;;8.20;99.90;;;;;;5419265;26;20311;-70
2024/04/15 04:10:07;;;;;;;10.00;7.33;;;8.20;99.90;;;;;;5418964;26;20638;-71
2024/04/15 04:12:33;;;;;;;8.87;6.87;;;8.20;99.90;;;;;;5418205;26;20300;-69
2024/04/15 04:14:59;;;;;;;7.93;5.30;;;8.20;99.90;;;;;;5417567;26;20220;-69
2024/04/15 04:17:25;;;;;;;9.50;7.03;;;8.10;99.90;;;;;;5418509;26;20294;-70
2024/04/15 04:19:50;;;;;;;13.33;7.97;;;8.10;99.90;;;;;;5419283;26;20461;-70
2024/04/15 04:22:16;;;;;;;12.30;7.63;;;8.10;99.90;;;;;;5419787;26;20220;-70
2024/04/15 04:24:42;;;;;;;13.20;8.17;;;8.00;99.90;;;;;;5381433;26;20246;-68
2024/04/15 04:27:07;;;;;;;17.13;7.20;;;8.00;99.90;;;;;;5413453;26;20223;-70
2024/04/15 04:29:33;;;;;;;10.53;6.90;;;8.00;99.90;;;;;;5392488;26;20297;-71
2024/04/15 04:31:59;;;;;;;10.70;7.30;;;8.00;99.90;;;;;;5412084;26;20285;-68
2024/04/15 04:34:25;;;;;;;13.20;7.47;;;8.00;99.90;;;;;;5418597;26;20453;-70
2024/04/15 04:36:51;;;;;;;9.27;6.87;;;8.00;99.90;;;;;;5392065;26;20239;-70
2024/04/15 04:39:17;;;;;;;8.07;6.13;;;8.00;99.90;;;;;;5420823;26;20265;-70
2024/04/15 04:41:42;;;;;;;8.70;6.33;;;8.00;99.90;;;;;;5418791;26;20461;-69
2024/04/15 04:44:08;;;;;;;9.70;6.87;;;7.90;99.90;;;;;;5418722;26;20263;-70
2024/04/15 04:46:34;;;;;;;10.77;6.80;;;8.00;99.90;;;;;;5407548;26;20228;-71
2024/04/15 04:48:59;;;;;;;9.43;6.97;;;8.00;99.90;;;;;;5426059;26;20266;-70
2024/04/15 04:51:25;;;;;;;13.27;7.17;;;8.00;99.90;;;;;;5427122;26;20247;-70
2024/04/15 04:53:52;;;;;;;10.63;7.20;;;8.00;99.90;;;;;;5428646;26;20220;-71
2024/04/15 04:56:19;;;;;;;9.07;6.50;;;8.00;99.90;;;;;;5398008;26;20239;-71
2024/04/15 04:58:47;;;;;;;8.47;6.67;;;8.00;99.90;;;;;;5429480;26;21199;-72
2024/04/15 05:01:18;;;;;;;11.83;6.73;;;8.00;99.90;;;;;;5429442;26;20461;-70
2024/04/15 05:03:49;;;;;;;9.80;6.20;;;8.00;99.90;;;;;;5421556;26;20512;-69
2024/04/15 05:06:16;;;;;;;9.97;6.67;;;8.10;99.90;;;;;;5422710;26;20477;-69
2024/04/15 05:08:46;;;;;;;14.00;6.23;;;8.10;99.90;;;;;;5421914;26;20595;-70
2024/04/15 05:11:11;;;;;;;7.50;5.30;;;8.10;99.90;;;;;;5423823;26;20523;-69
2024/04/15 05:13:37;;;;;;;8.93;5.33;;;8.20;99.90;;;;;;5427490;26;20461;-72
2024/04/15 05:16:07;;;;;;;7.03;6.27;;;8.20;99.90;;;;;;5425488;26;20219;-70
2024/04/15 05:18:33;;;;;;;10.33;5.63;;;8.20;99.90;;;;;;5423351;26;20801;-70
2024/04/15 05:21:00;;;;;;;11.33;5.97;;;8.30;99.90;;;;;;5392396;26;20500;-70
2024/04/15 05:23:26;;;;;;;9.77;6.60;;;8.40;99.90;;;;;;5424570;26;20560;-71
2024/04/15 05:25:55;;;;;;;8.20;5.60;;;8.50;99.90;;;;;;5424391;26;20466;-71
2024/04/15 05:28:20;;;;;;;14.80;6.27;;;8.50;99.90;;;;;;5424307;26;20604;-71
2024/04/15 05:30:46;;;;;;;9.80;4.73;;;8.60;99.90;;;;;;5422911;26;20846;-70
2024/04/15 05:33:12;;;;;;;11.90;5.50;;;8.70;99.90;;;;;;5423245;26;20673;-71
2024/04/15 05:35:38;;;;;;;12.53;6.30;;;8.80;99.90;;;;;;5423045;26;20219;-71
2024/04/15 05:38:04;;;;;;;8.90;5.17;;;9.00;99.90;;;;;;5423279;26;20469;-74
2024/04/15 05:40:29;;;;;;;7.50;4.80;;;9.10;99.90;;;;;;5363794;26;20251;-71
2024/04/15 05:42:55;;;;;;;11.47;6.07;;;9.20;99.90;;;;;;5421828;26;20231;-71
2024/04/15 05:45:20;;;;;;;8.57;5.13;;;9.30;99.90;;;;;;5412802;26;20219;-71
2024/04/15 05:47:46;;;;;;;5.10;3.90;;;9.40;99.90;;;;;;5422636;26;20223;-73
2024/04/15 05:50:12;;;;;;;10.10;3.93;;;9.50;99.90;;;;;;5392828;26;20672;-71
2024/04/15 05:52:37;;;;;;;9.80;5.03;;;9.60;99.90;;;;;;5423489;26;20220;-72
2024/04/15 05:55:03;;;;;;;6.83;4.83;;;9.70;99.90;;;;;;5423914;26;20219;-73
2024/04/15 05:57:29;;;;;;;6.37;4.23;;;9.80;99.90;;;;;;5395185;26;20740;-71
2024/04/15 05:59:54;;;;;;;6.97;3.57;;;9.90;99.90;;;;;;5417301;26;20458;-70
2024/04/15 06:02:20;;;;;;;10.50;4.00;;;10.10;99.90;;;;;;5426738;26;20219;-71
2024/04/15 06:04:45;;;;;;;6.00;3.03;;;10.30;99.90;;;;;;5386511;26;20220;-71
2024/04/15 06:07:11;;;;;;;8.63;3.73;;;10.50;99.90;;;;;;5374515;26;20268;-73
2024/04/15 06:09:39;;;;;;;9.70;3.83;;;10.60;99.90;;;;;;5412568;26;20332;-71
2024/04/15 06:12:05;;;;;;;6.10;3.37;;;10.80;99.90;;;;;;5395006;26;20239;-70
2024/04/15 06:14:31;;;;;;;5.20;3.10;;;10.90;99.90;;;;;;5427079;26;20903;-75
2024/04/15 06:16:57;;;;;;;10.43;3.30;;;11.00;99.90;;;;;;5385824;26;20523;-70
2024/04/15 06:19:23;;;;;;;6.90;3.10;;;11.00;99.90;;;;;;5424710;26;20536;-70
2024/04/15 06:21:50;;;;;;;10.23;4.37;;;11.20;99.90;;;;;;5423832;26;20531;-73
2024/04/15 06:24:15;;;;;;;7.10;3.37;;;11.10;99.90;;;;;;5425764;26;20270;-73
2024/04/15 06:26:41;;;;;;;8.40;2.30;;;11.20;99.90;;;;;;5388954;26;20465;-72
2024/04/15 06:29:06;;;;;;;6.73;2.83;;;11.20;99.90;;;;;;5419698;26;20308;-73
2024/04/15 06:31:32;;;;;;;11.70;3.07;;;11.30;99.90;;;;;;5395681;26;20220;-73
2024/04/15 06:34:00;;;;;;;9.33;3.70;;;11.20;99.90;;;;;;5355699;26;20221;-72
2024/04/15 06:36:27;;;;;;;10.47;2.67;;;11.10;99.90;;;;;;5389366;26;20233;-75
2024/04/15 06:38:52;;;;;;;7.37;2.37;;;10.90;99.90;;;;;;5424857;26;20457;-72
2024/04/15 06:41:18;;;;;;;8.53;2.73;;;10.90;99.90;;;;;;5425761;26;21002;-71
2024/04/15 06:43:43;;;;;;;7.10;2.63;;;10.90;99.90;;;;;;5425885;26;20790;-71
2024/04/15 06:46:09;;;;;;;10.40;2.67;;;10.90;99.90;;;;;;5422581;26;20273;-71
2024/04/15 06:48:35;;;;;;;8.60;2.73;;;10.90;99.90;;;;;;5423777;26;20227;-71
2024/04/15 06:51:01;;;;;;;8.10;2.40;;;11.00;99.90;;;;;;5375544;26;20229;-72
2024/04/15 06:53:27;;;;;;;12.23;2.80;;;11.00;99.90;;;;;;5426769;26;20568;-74
2024/04/15 06:55:52;;;;;;;4.90;2.17;;;11.10;99.90;;;;;;5423378;26;20219;-74
2024/04/15 06:58:18;;;;;;;8.13;2.90;;;11.10;99.90;;;;;;5424712;26;20236;-71
2024/04/15 07:00:43;;;;;;;5.00;2.27;;;11.20;99.90;;;;;;5424262;26;20227;-72
2024/04/15 07:03:09;;;;;;;8.03;2.33;;;11.30;99.90;;;;;;5422455;26;20316;-72
2024/04/15 07:05:35;;;;;;;4.90;2.67;;;11.40;99.90;;;;;;5423671;26;20301;-73
2024/04/15 07:08:01;;;;;;;7.10;2.60;;;11.50;99.90;;;;;;5399947;26;20551;-75
2024/04/15 07:10:26;;;;;;;8.23;3.00;;;11.60;99.90;;;;;;5429605;26;20219;-72
2024/04/15 07:12:52;;;;;;;8.40;2.23;;;11.60;99.90;;;;;;5392266;26;20466;-71
2024/04/15 07:15:18;;;;;;;11.60;3.00;;;11.60;99.90;;;;;;5392649;26;20321;-72
2024/04/15 07:17:43;;;;;;;4.97;2.83;;;11.50;99.90;;;;;;5421294;26;20227;-72
2024/04/15 07:20:10;;;;;;;8.93;4.57;;;11.50;99.90;;;;;;5424764;26;20490;-70
2024/04/15 07:22:35;;;;;;;7.23;2.70;;;11.50;99.90;;;;;;5423805;26;20454;-72
2024/04/15 07:25:02;;;;;;;7.53;2.30;;;11.60;99.90;;;;;;5422469;26;20483;-71
2024/04/15 07:27:35;;;;;;;9.37;3.17;;;11.70;99.90;;;;;;5415620;26;20572;-76
2024/04/15 07:30:01;;;;;;;7.93;3.20;;;11.60;99.90;;;;;;5412484;26;20462;-72
2024/04/15 07:32:27;;;;;;;10.73;3.90;;;11.70;99.90;;;;;;5370684;26;20469;-71
2024/04/15 07:34:53;;;;;;;7.73;2.70;;;11.70;99.90;;;;;;5424956;26;20767;-73
2024/04/15 07:37:18;;;;;;;8.00;2.57;;;11.60;99.90;;;;;;5421680;26;20231;-72
2024/04/15 07:39:48;;;;;;;8.70;3.33;;;11.40;99.90;;;;;;5385008;26;20287;-74
2024/04/15 07:42:14;;;;;;;7.53;2.40;;;11.40;99.90;;;;;;5419078;26;20485;-71
2024/04/15 07:44:39;;;;;;;13.33;3.13;;;11.50;99.90;;;;;;5423001;26;20795;-75
2024/04/15 07:47:05;;;;;;;10.57;3.50;;;11.60;99.90;;;;;;5411416;26;20642;-76
2024/04/15 07:49:34;;;;;;;7.80;3.20;;;11.70;99.90;;;;;;5373090;26;20220;-74
2024/04/15 07:52:01;;;;;;;8.23;2.90;;;11.80;99.90;;;;;;5392202;26;20430;-75
2024/04/15 07:54:26;;;;;;;9.90;2.67;;;11.80;99.90;;;;;;5392736;26;21034;-74
2024/04/15 07:56:52;;;;;;;11.13;2.60;;;11.90;99.90;;;;;;5426939;26;20322;-75
2024/04/15 07:59:18;;;;;;;3.77;2.17;;;12.10;99.90;;;;;;5426755;26;20307;-75
2024/04/15 08:01:43;;;;;;;8.27;2.73;;;12.30;99.90;;;;;;5398409;26;20251;-72
2024/04/15 08:04:10;;;;;;;7.43;3.10;;;12.50;99.90;;;;;;5421955;26;20228;-74
2024/04/15 08:06:37;;;;;;;4.47;2.40;;;12.60;99.90;;;;;;5394789;26;20554;-74
2024/04/15 08:09:03;;;;;;;9.90;3.20;;;12.50;99.90;;;;;;5425931;26;20282;-73
2024/04/15 08:11:29;;;;;;;7.10;3.20;;;12.50;99.90;;;;;;5425136;26;20462;-72
2024/04/15 08:13:55;;;;;;;6.17;2.57;;;12.40;99.90;;;;;;5432671;26;21015;-73
2024/04/15 08:16:21;;;;;;;7.43;2.13;;;12.40;99.90;;;;;;5423568;26;20224;-71
2024/04/15 08:18:49;;;;;;;8.43;2.37;;;12.50;99.80;;;;;;5412938;26;20506;-71
2024/04/15 08:21:15;;;;;;;6.80;2.40;;;12.60;98.90;;;;;;5422810;26;20258;-73
2024/04/15 08:23:41;;;;;;;5.43;2.00;;;12.70;96.40;;;;;;5426899;26;20464;-73
2024/04/15 08:26:07;;;;;;;6.10;2.50;;;12.80;96.10;;;;;;5425917;26;20347;-71
2024/04/15 08:28:33;;;;;;;8.57;2.70;;;12.90;95.70;;;;;;5419440;26;20572;-72
2024/04/15 08:30:58;;;;;;;6.57;2.57;;;13.20;95.50;;;;;;5419538;26;20230;-72
2024/04/15 08:33:24;;;;;;;11.87;3.17;;;13.60;94.40;;;;;;5425418;26;20821;-71
2024/04/15 08:35:50;;;;;;;6.83;2.20;;;13.80;91.00;;;;;;5436592;26;20273;-75
2024/04/15 08:38:16;;;;;;;9.33;2.70;;;13.90;88.60;;;;;;5389415;26;20454;-72
2024/04/15 08:41:04;;;;;;;7.60;2.63;;;14.10;86.90;;;;;;5423835;26;20219;-73
2024/04/15 08:43:30;;;;;;;4.17;2.47;;;14.30;82.50;;;;;;5364267;26;20501;-73
2024/04/15 08:46:03;;;;;;;5.90;2.17;;;14.30;82.30;;;;;;5423976;26;20453;-74
2024/04/15 08:48:29;;;;;;;4.53;1.77;;;14.30;82.20;;;;;;5423235;26;20453;-75
2024/04/15 08:50:56;;;;;;;8.30;2.50;;;14.50;81.40;;;;;;5384017;26;20981;-72
2024/04/15 08:53:23;;;;;;;3.60;1.90;;;14.60;78.70;;;;;;5421767;26;20266;-74
2024/04/15 08:55:48;;;;;;;6.10;2.20;;;14.70;76.80;;;;;;5360267;26;20544;-72
2024/04/15 08:58:14;;;;;;;9.67;2.43;;;14.80;73.30;;;;;;5391019;26;20864;-72
2024/04/15 09:00:41;;;;;;;5.23;2.03;;;14.80;71.20;;;;;;5415036;26;20465;-74
2024/04/15 09:03:09;;;;;;;5.23;1.93;;;14.80;70.10;;;;;;5425026;26;20458;-74
2024/04/15 09:05:37;;;;;;;7.27;2.20;;;14.80;68.20;;;;;;5426191;26;20462;-74
2024/04/15 09:08:03;;;;;;;3.40;2.00;;;14.80;68.70;;;;;;5423905;26;20527;-71
2024/04/15 09:10:28;;;;;;;9.10;1.80;;;14.90;70.00;;;;;;5425847;26;20231;-75
2024/04/15 09:12:56;;;;;;;7.10;2.10;;;15.10;68.40;;;;;;5424315;26;20521;-73
2024/04/15 09:15:27;;;;;;;6.23;2.57;;;15.10;63.70;;;;;;5392407;26;20266;-72
2024/04/15 09:17:53;;;;;;;7.20;2.50;;;15.10;65.70;;;;;;5422887;26;20548;-74
2024/04/15 09:20:23;;;;;;;9.57;2.30;;;15.20;64.70;;;;;;5388259;26;20470;-74
2024/04/15 09:22:49;;;;;;;4.70;2.00;;;15.20;63.70;;;;;;5423605;26;20795;-70
2024/04/15 09:25:15;;;;;;;5.10;1.60;;;15.20;62.90;;;;;;5423600;26;20543;-75
2024/04/15 09:27:40;;;;;;;7.70;2.07;;;15.30;62.40;;;;;;5423175;26;20478;-73
2024/04/15 09:30:07;;;;;;;6.57;2.40;;;15.20;61.30;;;;;;5390968;26;20225;-71
2024/04/15 09:32:34;;;;;;;7.60;1.90;;;15.10;60.30;;;;;;5396331;26;20263;-72
2024/04/15 09:35:01;;;;;;;4.10;2.10;;;15.10;60.90;;;;;;5425409;26;20461;-73
2024/04/15 09:37:27;;;;;;;8.60;2.37;;;15.10;60.90;;;;;;5429102;26;20476;-72
2024/04/15 09:39:54;;;;;;;9.03;2.00;;;15.20;59.90;;;;;;5374037;26;20505;-76
2024/04/15 09:42:21;;;;;;;5.30;2.37;;;15.30;59.80;;;;;;5432593;26;20736;-73
2024/04/15 09:44:51;;;;;;;4.90;2.47;;;15.40;59.80;;;;;;5393970;26;20503;-72
2024/04/15 09:47:18;;;;;;;6.10;1.90;;;15.70;59.30;;;;;;5427087;26;20561;-73
2024/04/15 09:49:46;;;;;;;5.10;2.23;;;15.80;58.30;;;;;;5434895;26;20900;-72
2024/04/15 09:52:31;;;;;;;6.57;3.30;;;15.80;58.00;;;;;;5428250;26;20569;-72
2024/04/15 09:55:04;;;;;;;4.87;1.93;;;15.90;56.70;;;;;;5387158;26;20511;-76
2024/04/15 09:57:33;;;;;;;10.50;3.33;;;15.80;55.90;;;;;;5379807;26;20471;-72
2024/04/15 10:00:03;;;;;;;4.17;2.13;;;16.00;55.60;;;;;;5424214;26;20505;-74
2024/04/15 10:03:05;;;;;;;7.73;2.60;;;15.90;54.60;;;;;;5375176;26;20548;-72
2024/04/15 10:05:34;;;;;;;5.87;2.23;;;15.70;55.20;;;;;;5407789;26;20477;-72
2024/04/15 10:08:00;;;;;;;4.47;1.73;;;15.70;55.50;;;;;;5400695;26;20485;-74
2024/04/15 10:10:27;;;;;;;6.10;1.90;;;15.90;56.00;;;;;;5429676;26;20549;-74
2024/04/15 10:12:55;;;;;;;6.03;2.20;;;16.10;55.10;;;;;;5368556;26;20250;-74
2024/04/15 10:15:26;;;;;;;6.57;2.60;;;16.20;54.60;;;;;;5430336;26;20559;-73
2024/04/15 10:18:22;;;;;;;9.10;1.87;;;16.30;54.00;;;;;;5435613;26;20521;-73
2024/04/15 10:20:50;;;;;;;5.13;1.80;;;16.00;52.70;;;;;;5359580;26;20503;-74
2024/04/15 10:23:19;;;;;;;8.43;1.77;;;16.10;53.00;;;;;;5429018;26;20587;-76
2024/04/15 10:25:44;;;;;;;4.73;1.90;;;16.10;52.30;;;;;;5412373;26;20473;-75
2024/04/15 10:28:14;;;;;;;4.43;1.70;;;16.00;52.30;;;;;;5428679;26;20549;-71
2024/04/15 10:30:40;;;;;;;3.40;1.97;;;16.00;52.50;;;;;;5428199;26;20231;-74
2024/04/15 10:33:13;;;;;;;8.03;2.70;;;16.00;52.20;;;;;;5428608;26;20736;-74
2024/04/15 10:35:40;;;;;;;5.23;1.63;;;15.80;52.50;;;;;;5400136;26;20572;-75
2024/04/15 10:38:08;;;;;;;5.73;1.77;;;15.80;53.80;;;;;;5429059;26;20474;-74
2024/04/15 10:40:40;;;;;;;9.50;1.97;;;15.90;53.60;;;;;;5427225;26;20514;-72
2024/04/15 10:43:06;;;;;;;5.60;1.87;;;15.90;53.20;;;;;;5430904;26;20783;-75
2024/04/15 10:45:33;;;;;;;6.07;2.33;;;15.90;53.10;;;;;;5402985;26;20450;-74
2024/04/15 10:47:59;;;;;;;8.27;1.93;;;15.90;52.80;;;;;;5429968;26;20271;-74
2024/04/15 10:50:25;;;;;;;6.87;1.53;;;16.00;51.90;;;;;;5375183;26;20465;-77
2024/04/15 10:52:52;;;;;;;6.60;1.73;;;16.00;50.90;;;;;;5328270;26;20767;-75
2024/04/15 10:55:19;;;;;;;4.40;1.53;;;16.20;51.10;;;;;;5372808;26;20459;-79
2024/04/15 10:57:49;;;;;;;5.30;2.23;;;16.40;50.50;;;;;;5366810;26;20470;-76
2024/04/15 11:00:20;;;;;;;7.90;3.40;;;16.70;50.00;;;;;;5444425;26;20454;-74
2024/04/15 11:02:51;;;;;;;5.67;1.70;;;16.80;48.70;;;;;;5430204;26;20449;-77
2024/04/15 11:05:21;;;;;;;5.60;2.27;;;16.80;48.50;;;;;;5393445;26;20497;-76
2024/04/15 11:07:51;;;;;;;11.43;2.37;;;16.70;48.60;;;;;;5337539;26;20506;-77
2024/04/15 11:10:19;;;;;;;8.00;2.60;;;16.80;48.30;;;;;;5336974;26;20528;-75
2024/04/15 11:12:51;;;;;;;10.03;2.40;;;16.90;47.50;;;;;;5373967;26;20776;-79
2024/04/15 11:15:21;;;;;;;7.40;2.87;;;17.00;48.10;;;;;;5376659;26;20465;-80
2024/04/15 11:17:54;;;;;;;7.87;1.60;;;17.10;47.10;;;;;;5347977;26;20536;-78
2024/04/15 11:20:21;;;;;;;9.23;1.93;;;17.40;46.10;;;;;;5370004;26;20549;-78
2024/04/15 11:22:47;;;;;;;4.77;2.23;;;17.50;45.80;;;;;;5369767;26;20474;-79
2024/04/15 11:25:14;;;;;;;3.50;1.13;;;17.60;44.80;;;;;;5401463;26;20579;-74
2024/04/15 11:27:44;;;;;;;5.30;1.70;;;17.80;45.90;;;;;;5402868;26;20472;-76
2024/04/15 11:30:15;;;;;;;2.73;1.70;;;18.10;45.50;;;;;;5370758;26;20467;-75
2024/04/15 11:54:02;;;;;;;6.53;1.60;;;18.80;43.60;;;;;;5670491;22;20607;-75
2024/04/15 11:56:28;;;;;;;5.70;1.70;;;18.80;43.30;;;;;;5231608;27;20469;-75
2024/04/15 11:58:54;;;;;;;6.77;1.50;;;18.50;41.10;;;;;;5244554;27;20605;-74
2024/04/15 12:01:20;;;;;;;5.70;1.60;;;18.40;41.60;;;;;;5236081;27;20318;-75
2024/04/15 12:03:46;;;;;;;6.57;1.60;;;18.30;41.10;;;;;;5237650;27;20476;-74
2024/04/15 12:06:11;;;;;;;2.20;1.20;;;18.30;41.20;;;;;;5252109;27;20310;-75
2024/04/15 12:08:37;;;;;;;7.00;2.50;;;18.40;40.90;;;;;;5245431;27;20271;-74
2024/04/15 12:11:13;;;;;;;5.47;1.80;;;18.30;39.80;;;;;;5243859;27;20240;-75
2024/04/15 12:13:40;;;;;;;4.80;1.30;;;18.00;39.90;;;;;;5182951;27;20241;-75
2024/04/15 12:16:06;;;;;;;2.53;1.20;;;18.10;40.00;;;;;;5233835;27;20461;-75
2024/04/15 12:18:32;;;;;;;3.50;1.63;;;18.10;40.30;;;;;;5239930;27;20581;-74
2024/04/15 12:20:57;;;;;;;4.53;1.80;;;18.10;40.30;;;;;;5236427;27;20267;-76
2024/04/15 12:23:23;;;;;;;4.20;1.80;;;18.20;40.30;;;;;;5229505;27;20480;-74
2024/04/15 12:25:49;;;;;;;4.20;1.57;;;18.20;40.50;;;;;;5274189;27;20220;-76
2024/04/15 12:28:15;;;;;;;2.50;1.37;;;18.20;40.10;;;;;;5199387;27;20223;-75
2024/04/15 12:30:41;;;;;;;5.37;1.80;;;18.10;39.60;;;;;;5227001;27;20237;-72
2024/04/15 12:33:06;;;;;;;4.10;1.83;;;17.80;39.50;;;;;;5269583;27;20469;-76
2024/04/15 12:35:32;;;;;;;3.30;1.67;;;17.50;39.70;;;;;;5207921;27;20517;-76
2024/04/15 12:37:58;;;;;;;5.17;1.73;;;17.10;39.60;;;;;;5227012;27;20265;-74
2024/04/15 12:40:24;;;;;;;4.60;1.80;;;16.80;40.40;;;;;;5211131;27;20655;-77
2024/04/15 12:42:49;;;;;;;3.70;1.40;;;16.50;40.90;;;;;;5237558;27;20274;-75
2024/04/15 12:45:16;;;;;;;3.40;1.57;;;16.40;41.50;;;;;;5267113;27;20321;-74
2024/04/15 12:47:43;;;;;;;3.67;1.97;;;16.20;41.90;;;;;;5242893;27;20597;-74
2024/04/15 12:50:09;;;;;;;5.23;1.50;;;16.20;42.40;;;;;;5251446;27;20477;-74
2024/04/15 12:52:35;;;;;;;4.30;1.80;;;16.10;42.30;;;;;;5266400;27;20560;-73
2024/04/15 12:55:01;;;;;;;3.53;2.20;;;15.90;42.10;;;;;;5271416;27;20523;-77
2024/04/15 12:57:28;;;;;;;3.60;1.30;;;15.80;42.80;;;;;;5218952;27;20477;-74
2024/04/15 12:59:56;;;;;;;7.90;1.70;;;15.70;42.90;;;;;;5235068;27;20469;-77
2024/04/15 13:02:21;;;;;;;4.43;1.70;;;15.60;43.30;;;;;;5271546;27;20510;-74
2024/04/15 13:04:47;;;;;;;4.03;1.93;;;15.60;44.20;;;;;;5246169;27;20471;-76
2024/04/15 13:07:13;;;;;;;4.07;1.10;;;15.60;44.40;;;;;;5270131;27;20245;-76